Time;durP1;ratioP1;P1;durP2;ratioP2;P2;SDS_P1;SDS_P2;PMS_P1;PMS_P2;Temp;Humidity;BMP_temperature;BMP_pressure;BME280_temperature;BME280_humidity;BME280_pressure;Samples;Min_cycle;Max_cycle;Signal;HPM_P1;HPM_P2
2021/07/19 00:01:56;;;;;;;5.80;3.70;;;21.30;99.90;;;;;;6158839;23;20430;-47
2021/07/19 00:04:23;;;;;;;5.20;4.33;;;21.30;99.90;;;;;;6159212;23;20406;-48
2021/07/19 00:06:50;;;;;;;8.07;3.57;;;21.20;99.90;;;;;;6158776;23;20414;-47
2021/07/19 00:09:19;;;;;;;4.57;3.83;;;21.20;99.90;;;;;;6158888;23;20447;-42
2021/07/19 00:11:46;;;;;;;4.60;3.63;;;21.20;99.90;;;;;;6159169;23;20438;-44
2021/07/19 00:14:12;;;;;;;6.90;3.90;;;21.10;99.90;;;;;;6159074;23;20464;-45
2021/07/19 00:16:39;;;;;;;6.33;5.30;;;21.00;99.90;;;;;;6159284;23;20429;-47
2021/07/19 00:19:07;;;;;;;5.27;4.10;;;21.00;99.90;;;;;;6159123;23;20432;-49
2021/07/19 00:21:33;;;;;;;8.50;3.90;;;20.90;99.90;;;;;;6160141;23;20405;-41
2021/07/19 00:24:00;;;;;;;7.63;3.93;;;20.90;99.90;;;;;;6161929;23;20425;-42
2021/07/19 00:26:28;;;;;;;5.83;4.30;;;20.80;99.90;;;;;;6161874;23;20928;-42
2021/07/19 00:28:55;;;;;;;5.67;3.90;;;20.70;99.90;;;;;;6161634;23;20442;-43
2021/07/19 00:31:22;;;;;;;5.37;4.17;;;20.70;99.90;;;;;;6162193;23;20519;-46
2021/07/19 00:33:49;;;;;;;5.10;4.30;;;20.70;99.90;;;;;;6161530;23;20447;-41
2021/07/19 00:36:16;;;;;;;6.83;4.40;;;20.70;99.90;;;;;;6160582;23;20479;-48
2021/07/19 00:38:42;;;;;;;4.40;3.80;;;20.60;99.90;;;;;;6160647;23;20405;-45
2021/07/19 00:41:11;;;;;;;11.43;5.97;;;20.60;99.90;;;;;;6161089;23;20428;-48
2021/07/19 00:43:39;;;;;;;9.40;4.93;;;20.50;99.90;;;;;;6160699;23;20413;-43
2021/07/19 00:46:06;;;;;;;6.90;4.70;;;20.40;99.90;;;;;;6160923;23;20389;-45
2021/07/19 00:48:33;;;;;;;5.93;4.83;;;20.40;99.90;;;;;;6160252;23;20717;-44
2021/07/19 00:50:59;;;;;;;8.47;5.13;;;20.30;99.90;;;;;;6161126;23;20410;-47
2021/07/19 00:53:26;;;;;;;6.17;5.53;;;20.30;99.90;;;;;;6161314;23;20406;-49
2021/07/19 00:55:56;;;;;;;8.03;4.60;;;20.30;99.90;;;;;;6161121;23;20472;-47
2021/07/19 00:58:25;;;;;;;5.50;4.73;;;20.30;99.90;;;;;;6160991;23;20414;-45
2021/07/19 01:00:58;;;;;;;10.57;5.30;;;20.20;99.90;;;;;;6160481;23;20401;-48
2021/07/19 01:03:26;;;;;;;7.30;5.73;;;20.20;99.90;;;;;;6160770;23;20397;-45
2021/07/19 01:05:53;;;;;;;8.23;4.73;;;20.20;99.90;;;;;;6160507;23;20482;-44
2021/07/19 01:08:20;;;;;;;7.90;5.63;;;20.10;99.90;;;;;;6161261;23;20422;-47
2021/07/19 01:10:48;;;;;;;8.43;4.97;;;20.00;99.90;;;;;;6160212;23;20503;-49
2021/07/19 01:13:15;;;;;;;9.03;4.87;;;20.00;99.90;;;;;;6160920;23;20433;-44
2021/07/19 01:15:43;;;;;;;6.37;4.90;;;19.90;99.90;;;;;;6160738;23;20405;-43
2021/07/19 01:18:12;;;;;;;8.83;5.30;;;19.80;99.90;;;;;;6160868;23;20856;-44
2021/07/19 01:20:51;;;;;;;7.70;5.20;;;19.70;99.90;;;;;;6160782;23;20428;-43
2021/07/19 01:23:45;;;;;;;6.77;4.33;;;19.70;99.90;;;;;;6160906;23;20433;-48
2021/07/19 01:26:37;;;;;;;7.23;5.37;;;19.70;99.90;;;;;;6160940;23;20386;-44
2021/07/19 01:29:07;;;;;;;9.73;4.93;;;19.70;99.90;;;;;;6161287;23;20433;-42
2021/07/19 01:31:37;;;;;;;10.87;6.30;;;19.60;99.90;;;;;;6160398;23;20445;-44
2021/07/19 01:34:10;;;;;;;11.43;6.27;;;19.70;99.90;;;;;;6160392;23;20507;-49
2021/07/19 01:36:42;;;;;;;12.03;6.80;;;19.60;99.90;;;;;;6160753;23;20386;-44
2021/07/19 01:39:09;;;;;;;11.07;4.90;;;19.60;99.90;;;;;;6160241;23;20829;-42
2021/07/19 01:41:37;;;;;;;7.73;4.40;;;19.60;99.90;;;;;;6160539;23;20488;-40
2021/07/19 01:44:07;;;;;;;13.23;6.40;;;19.60;99.90;;;;;;6160383;23;20410;-46
2021/07/19 01:46:35;;;;;;;7.67;5.17;;;19.60;99.90;;;;;;6160398;23;20406;-42
2021/07/19 01:49:04;;;;;;;8.60;5.23;;;19.60;99.90;;;;;;6159810;23;20730;-41
2021/07/19 01:51:31;;;;;;;10.80;5.60;;;19.50;99.90;;;;;;6161024;23;20422;-43
2021/07/19 01:54:00;;;;;;;8.20;4.90;;;19.40;99.90;;;;;;6160113;23;20418;-50
2021/07/19 01:56:28;;;;;;;12.07;5.87;;;19.30;99.90;;;;;;6160508;23;20413;-44
2021/07/19 01:58:57;;;;;;;8.57;5.47;;;19.30;99.90;;;;;;6160875;23;20465;-50
2021/07/19 02:01:26;;;;;;;8.67;5.37;;;19.20;99.90;;;;;;6161344;23;20414;-44
2021/07/19 02:03:53;;;;;;;6.87;5.43;;;19.10;99.90;;;;;;6160906;23;20436;-47
2021/07/19 02:06:21;;;;;;;7.57;6.20;;;19.10;99.90;;;;;;6160953;23;20418;-42
2021/07/19 02:08:52;;;;;;;14.43;5.90;;;19.10;99.90;;;;;;6161107;23;20410;-43
2021/07/19 02:11:24;;;;;;;6.07;5.47;;;19.10;99.90;;;;;;6160963;23;20446;-42
2021/07/19 02:13:52;;;;;;;7.93;5.03;;;19.10;99.90;;;;;;6161711;23;20733;-42
2021/07/19 02:16:20;;;;;;;6.47;5.43;;;19.10;99.90;;;;;;6161512;23;20414;-43
2021/07/19 02:18:49;;;;;;;12.60;6.30;;;19.00;99.90;;;;;;6161378;23;20452;-45
2021/07/19 02:21:19;;;;;;;13.00;5.20;;;19.00;99.90;;;;;;6160997;23;20405;-43
2021/07/19 02:23:47;;;;;;;9.97;5.77;;;18.90;99.90;;;;;;6161122;23;20391;-47
2021/07/19 02:26:15;;;;;;;6.50;4.60;;;18.80;99.90;;;;;;6161048;23;20402;-44
2021/07/19 02:28:43;;;;;;;7.27;5.10;;;18.70;99.90;;;;;;6160304;23;20422;-45
2021/07/19 02:31:10;;;;;;;7.90;4.93;;;18.60;99.90;;;;;;6160431;23;20744;-49
2021/07/19 02:33:39;;;;;;;9.13;5.10;;;18.50;99.90;;;;;;6159473;23;20429;-49
2021/07/19 02:36:08;;;;;;;12.90;5.40;;;18.50;99.90;;;;;;6160645;23;20418;-45
2021/07/19 02:38:36;;;;;;;9.73;4.77;;;18.50;99.90;;;;;;6160279;23;20464;-43
2021/07/19 02:41:04;;;;;;;10.50;5.90;;;18.40;99.90;;;;;;6160361;23;20402;-45
2021/07/19 02:43:32;;;;;;;8.67;5.50;;;18.30;99.90;;;;;;6160145;23;20425;-41
2021/07/19 02:46:00;;;;;;;8.83;7.90;;;18.30;99.90;;;;;;6161150;23;20402;-44
2021/07/19 02:48:29;;;;;;;13.67;4.43;;;18.30;99.90;;;;;;6160969;23;20416;-41
2021/07/19 02:50:58;;;;;;;10.63;5.17;;;18.20;99.90;;;;;;6161447;23;20452;-41
2021/07/19 02:53:30;;;;;;;13.07;5.23;;;18.10;99.90;;;;;;6160813;23;20405;-42
2021/07/19 02:55:58;;;;;;;11.10;4.53;;;18.00;99.90;;;;;;6161615;23;20720;-45
2021/07/19 02:58:25;;;;;;;7.20;4.87;;;18.00;99.90;;;;;;6161237;23;20405;-42
2021/07/19 03:00:53;;;;;;;10.70;5.07;;;18.00;99.90;;;;;;6162011;23;20425;-43
2021/07/19 03:03:23;;;;;;;7.40;4.97;;;18.00;99.90;;;;;;6161797;23;20445;-41
2021/07/19 03:05:54;;;;;;;12.53;6.23;;;18.00;99.90;;;;;;6161935;23;20410;-41
2021/07/19 03:08:22;;;;;;;6.83;4.10;;;18.00;99.90;;;;;;6161119;23;20410;-41
2021/07/19 03:10:53;;;;;;;5.83;4.20;;;17.90;99.90;;;;;;6160674;23;20741;-41
2021/07/19 03:13:24;;;;;;;11.60;4.80;;;17.90;99.90;;;;;;6160483;23;20390;-45
2021/07/19 03:15:51;;;;;;;10.13;4.23;;;17.90;99.90;;;;;;6161282;23;20471;-41
2021/07/19 03:18:20;;;;;;;7.50;4.50;;;17.80;99.90;;;;;;6161230;23;20421;-42
2021/07/19 03:20:47;;;;;;;9.63;4.37;;;17.70;99.90;;;;;;6161667;23;20402;-55
2021/07/19 03:23:19;;;;;;;14.40;4.37;;;17.70;99.90;;;;;;6161503;23;20401;-44
2021/07/19 03:25:47;;;;;;;10.27;4.50;;;17.70;99.90;;;;;;6161983;23;20445;-41
2021/07/19 03:28:18;;;;;;;7.00;3.77;;;17.60;99.90;;;;;;6160425;23;20939;-44
2021/07/19 03:30:45;;;;;;;18.27;4.47;;;17.50;99.90;;;;;;6159993;23;20776;-43
2021/07/19 03:33:14;;;;;;;9.93;5.43;;;17.40;99.90;;;;;;6159411;23;20443;-47
2021/07/19 03:35:41;;;;;;;8.13;4.00;;;17.30;99.90;;;;;;6159280;23;20454;-48
2021/07/19 03:38:09;;;;;;;8.90;4.77;;;17.30;99.90;;;;;;6159807;23;20860;-45
2021/07/19 03:40:37;;;;;;;9.20;3.80;;;17.30;99.90;;;;;;6159801;23;20402;-45
2021/07/19 03:43:04;;;;;;;14.00;4.63;;;17.30;99.90;;;;;;6159217;23;20418;-50
2021/07/19 03:45:33;;;;;;;17.90;5.83;;;17.30;99.90;;;;;;6159443;23;20406;-48
2021/07/19 03:48:02;;;;;;;12.27;4.80;;;17.30;99.90;;;;;;6159432;23;20417;-45
2021/07/19 03:50:31;;;;;;;6.97;3.70;;;17.30;99.90;;;;;;6159344;23;20763;-45
2021/07/19 03:52:58;;;;;;;7.43;4.50;;;17.40;99.90;;;;;;6159379;23;20413;-45
2021/07/19 03:55:25;;;;;;;7.17;3.43;;;17.40;99.90;;;;;;6161060;23;20405;-51
2021/07/19 03:57:52;;;;;;;8.50;4.43;;;17.30;99.90;;;;;;6161423;23;20417;-45
2021/07/19 04:00:21;;;;;;;15.13;4.50;;;17.30;99.90;;;;;;6161478;23;20766;-47
2021/07/19 04:02:52;;;;;;;14.30;4.00;;;17.40;99.90;;;;;;6161341;23;20440;-48
2021/07/19 04:05:22;;;;;;;15.03;4.20;;;17.30;99.90;;;;;;6161259;23;20393;-47
2021/07/19 04:07:49;;;;;;;12.30;4.90;;;17.20;99.90;;;;;;6161515;23;20437;-44
2021/07/19 04:10:19;;;;;;;7.30;3.63;;;17.20;99.90;;;;;;6161174;23;20453;-46
2021/07/19 04:12:48;;;;;;;9.50;4.17;;;17.30;99.90;;;;;;6161455;23;20417;-47
2021/07/19 04:15:15;;;;;;;6.53;4.30;;;17.30;99.90;;;;;;6161215;23;20885;-49
2021/07/19 04:17:43;;;;;;;8.20;5.70;;;17.30;99.90;;;;;;6161172;23;20417;-44
2021/07/19 04:20:13;;;;;;;5.63;2.93;;;17.30;99.90;;;;;;6161337;23;20401;-44
2021/07/19 04:22:40;;;;;;;11.90;3.80;;;17.30;99.90;;;;;;6161192;23;20561;-48
2021/07/19 04:25:10;;;;;;;6.33;3.70;;;17.20;99.90;;;;;;6161500;23;20415;-42
2021/07/19 04:27:39;;;;;;;8.13;4.40;;;17.20;99.90;;;;;;6161130;23;20708;-43
2021/07/19 04:30:07;;;;;;;12.07;4.70;;;17.20;99.90;;;;;;6160960;23;20452;-47
2021/07/19 04:32:34;;;;;;;8.40;4.43;;;17.20;99.90;;;;;;6160924;23;20406;-44
2021/07/19 04:35:01;;;;;;;8.60;3.93;;;17.10;99.90;;;;;;6160617;23;20445;-44
2021/07/19 04:37:29;;;;;;;14.80;5.40;;;17.20;99.90;;;;;;6160428;23;20389;-50
2021/07/19 04:39:55;;;;;;;8.00;3.80;;;17.30;99.90;;;;;;6161682;23;20404;-48
2021/07/19 04:42:22;;;;;;;11.20;3.70;;;17.30;99.90;;;;;;6161559;23;20714;-45
2021/07/19 04:44:49;;;;;;;10.30;4.37;;;17.30;99.90;;;;;;6161823;23;20460;-44
2021/07/19 04:47:16;;;;;;;13.53;4.13;;;17.30;99.90;;;;;;6160709;23;20444;-46
2021/07/19 04:49:43;;;;;;;17.10;4.40;;;17.40;99.90;;;;;;6161133;23;20422;-43
2021/07/19 04:52:10;;;;;;;11.40;3.80;;;17.30;99.90;;;;;;6161980;23;20402;-43
2021/07/19 04:54:39;;;;;;;9.33;3.57;;;17.30;99.90;;;;;;6161498;23;20465;-49
2021/07/19 04:57:09;;;;;;;8.80;4.23;;;17.30;99.90;;;;;;6160876;23;20417;-46
2021/07/19 04:59:40;;;;;;;11.40;4.43;;;17.20;99.90;;;;;;6161210;23;20680;-43
2021/07/19 05:02:11;;;;;;;8.77;3.73;;;17.20;99.90;;;;;;6160728;23;20493;-45
2021/07/19 05:04:39;;;;;;;9.70;3.67;;;17.10;99.90;;;;;;6161149;23;20390;-42
2021/07/19 05:07:07;;;;;;;12.37;4.47;;;17.10;99.90;;;;;;6160383;23;20421;-43
2021/07/19 05:09:40;;;;;;;8.50;5.07;;;17.10;99.90;;;;;;6161308;23;20419;-50
2021/07/19 05:12:11;;;;;;;12.07;4.87;;;17.10;99.90;;;;;;6162279;23;20421;-49
2021/07/19 05:14:39;;;;;;;18.23;3.33;;;17.10;99.90;;;;;;6160898;23;20459;-46
2021/07/19 05:17:09;;;;;;;10.83;6.10;;;17.10;99.90;;;;;;6160590;23;20489;-48
2021/07/19 05:19:37;;;;;;;9.13;3.83;;;17.30;99.90;;;;;;6160862;23;20464;-43
2021/07/19 05:22:08;;;;;;;9.67;4.43;;;17.40;99.90;;;;;;6160730;23;20997;-50
2021/07/19 05:24:36;;;;;;;11.00;4.37;;;17.50;99.90;;;;;;6162798;23;20421;-44
2021/07/19 05:27:04;;;;;;;7.63;4.00;;;17.60;99.90;;;;;;6162124;23;20424;-45
2021/07/19 05:29:33;;;;;;;10.40;4.83;;;17.60;99.90;;;;;;6160916;23;20776;-49
2021/07/19 05:32:00;;;;;;;9.40;3.90;;;17.70;99.90;;;;;;6160961;23;20437;-47
2021/07/19 05:34:27;;;;;;;7.83;4.10;;;17.70;99.90;;;;;;6159799;23;20430;-45
2021/07/19 05:36:53;;;;;;;11.83;4.73;;;17.70;99.90;;;;;;6160521;23;20409;-46
2021/07/19 05:39:20;;;;;;;9.00;4.60;;;17.70;99.90;;;;;;6160645;23;20418;-48
2021/07/19 05:41:47;;;;;;;11.00;3.93;;;17.60;99.90;;;;;;6160306;23;20410;-44
2021/07/19 05:44:14;;;;;;;12.10;5.43;;;17.60;99.90;;;;;;6160785;23;20472;-43
2021/07/19 05:46:42;;;;;;;5.80;3.80;;;17.60;99.90;;;;;;6161215;23;20417;-44
2021/07/19 05:49:10;;;;;;;15.13;5.20;;;17.50;99.90;;;;;;6160919;23;20418;-42
2021/07/19 05:51:36;;;;;;;10.03;4.50;;;17.40;99.90;;;;;;6161136;23;20739;-47
2021/07/19 05:54:03;;;;;;;13.20;4.50;;;17.40;99.90;;;;;;6161097;23;20460;-45
2021/07/19 05:56:31;;;;;;;10.10;4.97;;;17.50;99.90;;;;;;6161196;23;20417;-45
2021/07/19 05:58:58;;;;;;;10.83;4.50;;;17.50;99.90;;;;;;6161224;23;20418;-45
2021/07/19 06:01:25;;;;;;;21.33;5.63;;;17.50;99.90;;;;;;6160631;23;20486;-45
2021/07/19 06:03:53;;;;;;;15.13;4.07;;;17.60;99.90;;;;;;6159859;23;20889;-46
2021/07/19 06:06:20;;;;;;;9.00;5.37;;;17.80;99.90;;;;;;6158473;23;20406;-48
2021/07/19 06:08:46;;;;;;;9.60;4.90;;;18.00;99.90;;;;;;6161707;23;20416;-44
2021/07/19 06:11:13;;;;;;;12.13;4.80;;;18.20;99.90;;;;;;6159858;23;20516;-47
2021/07/19 06:13:40;;;;;;;8.10;4.70;;;18.40;99.90;;;;;;6160394;23;20436;-43
2021/07/19 06:16:07;;;;;;;8.60;5.70;;;18.60;99.90;;;;;;6160160;23;20422;-47
2021/07/19 06:18:33;;;;;;;13.80;5.07;;;18.80;99.90;;;;;;6160144;23;20405;-45
2021/07/19 06:21:02;;;;;;;9.60;5.30;;;18.90;99.90;;;;;;6159791;23;20737;-43
2021/07/19 06:23:28;;;;;;;9.03;5.53;;;19.10;99.90;;;;;;6159533;23;20410;-47
2021/07/19 06:25:55;;;;;;;10.93;5.50;;;19.10;99.90;;;;;;6159980;23;20406;-45
2021/07/19 06:28:22;;;;;;;11.30;6.43;;;19.20;99.90;;;;;;6159963;23;20428;-46
2021/07/19 06:30:53;;;;;;;10.90;4.70;;;19.20;99.90;;;;;;6160398;23;20448;-44
2021/07/19 06:33:20;;;;;;;11.90;5.50;;;19.40;99.90;;;;;;6160115;23;20445;-46
2021/07/19 06:35:46;;;;;;;12.37;5.37;;;19.50;99.90;;;;;;6157797;23;20417;-44
2021/07/19 06:38:15;;;;;;;16.23;5.37;;;19.60;99.90;;;;;;6158269;23;20674;-43
2021/07/19 06:40:41;;;;;;;8.73;6.27;;;19.60;99.90;;;;;;6157719;23;20472;-44
2021/07/19 06:43:08;;;;;;;8.67;4.87;;;19.60;99.90;;;;;;6158337;23;20468;-45
2021/07/19 06:45:35;;;;;;;12.10;5.73;;;19.60;99.90;;;;;;6157839;23;20988;-43
2021/07/19 06:48:01;;;;;;;13.13;5.70;;;19.70;99.90;;;;;;6159153;23;20749;-44
2021/07/19 06:50:28;;;;;;;14.03;5.93;;;19.70;99.90;;;;;;6159989;23;20770;-45
2021/07/19 06:52:55;;;;;;;8.07;4.70;;;19.80;99.90;;;;;;6159681;23;20406;-44
2021/07/19 06:55:23;;;;;;;10.50;7.10;;;19.80;99.90;;;;;;6158912;23;20608;-43
2021/07/19 06:57:50;;;;;;;13.97;4.60;;;19.80;99.90;;;;;;6159717;23;20691;-43
2021/07/19 07:00:17;;;;;;;15.43;5.40;;;19.80;99.90;;;;;;6160367;23;20405;-42
2021/07/19 07:02:43;;;;;;;10.57;4.80;;;20.00;99.90;;;;;;6159997;23;20398;-42
2021/07/19 07:05:11;;;;;;;14.60;5.50;;;20.10;99.90;;;;;;6160218;23;20410;-43
2021/07/19 07:07:38;;;;;;;6.47;4.87;;;20.20;99.90;;;;;;6160744;23;20405;-43
2021/07/19 07:10:06;;;;;;;13.20;5.87;;;20.20;99.90;;;;;;6160077;23;20413;-42
2021/07/19 07:12:35;;;;;;;14.00;5.83;;;20.40;99.90;;;;;;6160535;23;20438;-47
2021/07/19 07:15:02;;;;;;;18.70;5.40;;;20.50;99.90;;;;;;6160887;23;20460;-43
2021/07/19 07:17:29;;;;;;;8.40;4.63;;;20.60;99.90;;;;;;6162048;23;20468;-43
2021/07/19 07:19:56;;;;;;;10.90;5.63;;;20.70;99.90;;;;;;6162198;23;20416;-46
2021/07/19 07:22:25;;;;;;;13.37;6.70;;;20.80;99.90;;;;;;6161700;23;20456;-44
2021/07/19 07:24:52;;;;;;;15.00;5.90;;;21.10;99.90;;;;;;6160628;23;20411;-43
2021/07/19 07:27:19;;;;;;;9.93;5.00;;;21.70;99.90;;;;;;6159541;23;20409;-45
2021/07/19 07:29:48;;;;;;;6.87;4.87;;;22.10;99.90;;;;;;6158987;23;20452;-46
2021/07/19 07:32:15;;;;;;;7.63;5.20;;;22.80;99.90;;;;;;6158459;23;20500;-45
2021/07/19 07:34:42;;;;;;;12.73;5.90;;;23.40;99.90;;;;;;6158756;23;20445;-48
2021/07/19 07:37:12;;;;;;;9.53;5.50;;;24.00;99.90;;;;;;6159184;23;20489;-45
2021/07/19 07:39:39;;;;;;;9.77;6.30;;;24.50;99.90;;;;;;6158583;23;20911;-46
2021/07/19 07:42:05;;;;;;;7.87;5.23;;;24.40;98.40;;;;;;6158364;23;20709;-44
2021/07/19 07:44:32;;;;;;;10.30;6.40;;;24.60;97.50;;;;;;6159171;23;20417;-44
2021/07/19 07:47:00;;;;;;;6.80;5.63;;;25.30;96.50;;;;;;6160972;23;20405;-49
2021/07/19 07:49:27;;;;;;;8.43;5.23;;;26.30;92.10;;;;;;6160230;23;20872;-44
2021/07/19 07:51:54;;;;;;;6.60;4.83;;;26.50;87.80;;;;;;6160372;23;20445;-47
2021/07/19 07:54:21;;;;;;;13.87;6.30;;;26.10;84.30;;;;;;6157755;23;20432;-45
2021/07/19 07:56:48;;;;;;;7.43;6.10;;;25.30;86.40;;;;;;6158522;23;20405;-48
2021/07/19 07:59:15;;;;;;;13.17;7.33;;;24.60;88.90;;;;;;6160986;23;20456;-45
2021/07/19 08:01:42;;;;;;;8.30;6.13;;;24.00;90.00;;;;;;6160063;23;20413;-47
2021/07/19 08:04:10;;;;;;;7.90;5.47;;;23.40;91.30;;;;;;6161275;23;20397;-46
2021/07/19 08:06:36;;;;;;;7.23;4.83;;;23.20;92.10;;;;;;6159116;23;20410;-43
2021/07/19 08:09:03;;;;;;;11.07;6.13;;;23.20;92.40;;;;;;6159752;23;20394;-45
2021/07/19 08:11:30;;;;;;;9.37;6.73;;;23.50;92.40;;;;;;6158834;23;20472;-42
2021/07/19 08:13:57;;;;;;;10.40;5.90;;;23.60;93.10;;;;;;6160229;23;20413;-44
2021/07/19 08:16:24;;;;;;;8.70;6.60;;;23.50;92.40;;;;;;6161744;23;20414;-46
2021/07/19 08:18:51;;;;;;;17.33;6.37;;;23.60;91.10;;;;;;6157657;23;20425;-43
2021/07/19 08:21:19;;;;;;;7.67;5.67;;;23.80;92.20;;;;;;6157709;23;20397;-45
2021/07/19 08:23:46;;;;;;;10.00;5.47;;;24.00;90.50;;;;;;6158675;23;20401;-45
2021/07/19 08:26:14;;;;;;;7.43;5.53;;;24.40;90.20;;;;;;6161481;23;20406;-48
2021/07/19 08:28:41;;;;;;;11.13;6.10;;;24.40;90.00;;;;;;6157015;23;20876;-46
2021/07/19 08:31:08;;;;;;;9.50;5.60;;;24.40;90.10;;;;;;6157539;23;20409;-43
2021/07/19 08:33:34;;;;;;;8.00;5.13;;;24.50;88.50;;;;;;6158645;23;20437;-48
2021/07/19 08:36:01;;;;;;;12.63;6.33;;;24.50;89.20;;;;;;6160258;23;20485;-46
2021/07/19 08:38:29;;;;;;;9.97;6.30;;;24.70;85.50;;;;;;6159107;23;20485;-48
2021/07/19 08:40:57;;;;;;;7.73;5.87;;;25.00;84.70;;;;;;6163058;23;20472;-49
2021/07/19 08:43:24;;;;;;;8.63;6.07;;;25.50;82.30;;;;;;6169955;23;20425;-44
2021/07/19 08:45:50;;;;;;;7.87;5.57;;;26.00;79.10;;;;;;6161243;23;20402;-46
2021/07/19 08:48:17;;;;;;;11.37;6.20;;;26.30;78.50;;;;;;6161287;23;20538;-47
2021/07/19 08:50:46;;;;;;;9.00;5.80;;;27.20;74.40;;;;;;6160231;23;20401;-45
2021/07/19 08:53:13;;;;;;;7.90;6.70;;;26.70;71.00;;;;;;6158722;23;20738;-49
2021/07/19 08:55:42;;;;;;;11.80;6.53;;;25.40;75.30;;;;;;6159564;23;20410;-49
2021/07/19 08:58:13;;;;;;;9.00;6.37;;;24.50;78.70;;;;;;6159613;23;20693;-47
2021/07/19 09:00:40;;;;;;;7.20;5.13;;;23.90;80.10;;;;;;6159223;23;20401;-46
2021/07/19 09:03:08;;;;;;;9.80;5.63;;;23.10;82.30;;;;;;6179596;23;20402;-47
2021/07/19 09:05:37;;;;;;;10.33;5.57;;;22.60;85.50;;;;;;6180571;23;20370;-50
2021/07/19 09:08:06;;;;;;;13.23;6.30;;;22.40;86.40;;;;;;6173903;23;20417;-45
2021/07/19 09:10:32;;;;;;;8.50;5.20;;;22.20;87.80;;;;;;6176880;23;20405;-43
2021/07/19 09:13:00;;;;;;;8.23;6.00;;;22.20;89.60;;;;;;6182148;23;20449;-48
2021/07/19 09:15:30;;;;;;;10.50;5.27;;;22.20;90.20;;;;;;6170246;23;20410;-43
2021/07/19 09:17:57;;;;;;;11.60;4.70;;;22.20;90.70;;;;;;6175648;23;20406;-44
2021/07/19 09:20:29;;;;;;;9.10;5.93;;;22.00;91.00;;;;;;6178702;23;20513;-42
2021/07/19 09:22:56;;;;;;;9.63;6.00;;;21.80;91.70;;;;;;6178561;23;20398;-43
2021/07/19 09:25:24;;;;;;;8.10;5.87;;;21.80;92.70;;;;;;6181698;23;20441;-42
2021/07/19 09:27:56;;;;;;;10.30;5.30;;;22.00;92.80;;;;;;6183501;23;20389;-43
2021/07/19 09:30:26;;;;;;;9.03;5.27;;;22.40;92.20;;;;;;6174656;23;20386;-48
2021/07/19 09:33:02;;;;;;;8.90;5.63;;;22.60;91.90;;;;;;6174021;23;20441;-46
2021/07/19 09:35:30;;;;;;;12.00;5.73;;;22.40;92.10;;;;;;6179770;23;20674;-51
2021/07/19 09:38:04;;;;;;;8.47;5.47;;;22.30;91.80;;;;;;6178168;23;20421;-45
2021/07/19 09:40:33;;;;;;;10.67;5.30;;;22.30;91.50;;;;;;6179151;23;20386;-44
2021/07/19 09:43:01;;;;;;;8.80;4.70;;;22.00;93.50;;;;;;6168392;23;20425;-49
2021/07/19 09:45:31;;;;;;;7.60;5.00;;;22.10;93.40;;;;;;6174150;23;20414;-46
2021/07/19 09:48:05;;;;;;;9.43;4.80;;;22.00;92.40;;;;;;6169971;23;20398;-47
2021/07/19 09:50:41;;;;;;;8.93;5.60;;;21.90;94.20;;;;;;6161017;23;20495;-45
2021/07/19 09:53:08;;;;;;;8.30;5.40;;;21.80;93.80;;;;;;6159962;23;20505;-48
2021/07/19 09:55:36;;;;;;;7.77;5.00;;;21.70;93.80;;;;;;6158453;23;20409;-48
2021/07/19 09:58:04;;;;;;;5.93;4.60;;;21.50;94.70;;;;;;6162275;23;20419;-51
2021/07/19 10:00:34;;;;;;;10.10;6.40;;;21.50;96.10;;;;;;6164141;23;20417;-46
2021/07/19 10:03:12;;;;;;;10.63;4.70;;;21.50;95.90;;;;;;6173067;23;20428;-46
2021/07/19 10:05:38;;;;;;;10.17;5.13;;;21.40;95.00;;;;;;6168959;23;20374;-44
2021/07/19 10:08:06;;;;;;;8.83;4.90;;;21.50;95.40;;;;;;6164381;23;20410;-46
2021/07/19 10:10:34;;;;;;;9.30;5.77;;;21.80;95.50;;;;;;6160922;23;20417;-46
2021/07/19 10:13:02;;;;;;;8.43;5.10;;;22.00;95.40;;;;;;6162817;23;20545;-44
2021/07/19 10:15:30;;;;;;;11.67;4.87;;;22.00;95.40;;;;;;6159956;23;20472;-46
2021/07/19 10:17:59;;;;;;;5.17;4.50;;;22.10;95.60;;;;;;6159652;23;20402;-49
2021/07/19 10:20:27;;;;;;;16.93;5.30;;;22.30;95.10;;;;;;6159429;23;20410;-44
2021/07/19 10:22:53;;;;;;;6.90;5.27;;;22.30;95.50;;;;;;6159497;23;20491;-44
2021/07/19 10:25:20;;;;;;;5.77;4.37;;;22.50;94.60;;;;;;6159313;23;20406;-45
2021/07/19 10:27:48;;;;;;;7.07;5.03;;;22.40;94.40;;;;;;6158945;23;20530;-46
2021/07/19 10:30:15;;;;;;;7.80;4.93;;;22.40;94.80;;;;;;6159270;23;20416;-44
2021/07/19 10:32:42;;;;;;;8.27;5.37;;;22.30;94.40;;;;;;6159310;23;20441;-44
2021/07/19 10:35:11;;;;;;;8.90;6.00;;;22.10;95.00;;;;;;6159122;23;20872;-46
2021/07/19 10:37:55;;;;;;;9.37;6.97;;;21.80;95.40;;;;;;6159686;23;20408;-49
2021/07/19 10:40:31;;;;;;;7.20;5.50;;;21.60;96.30;;;;;;6159097;23;20402;-48
2021/07/19 10:43:07;;;;;;;9.73;4.47;;;21.60;97.10;;;;;;6158764;23;20433;-50
2021/07/19 10:45:45;;;;;;;10.17;4.07;;;21.40;96.50;;;;;;6158498;23;20405;-49
2021/07/19 10:48:23;;;;;;;5.80;4.37;;;21.30;97.40;;;;;;6159223;23;20488;-47
2021/07/19 10:50:51;;;;;;;8.93;6.13;;;21.30;98.40;;;;;;6159197;23;20406;-44
2021/07/19 10:53:20;;;;;;;9.63;5.40;;;21.10;99.70;;;;;;6158893;23;20446;-46
2021/07/19 10:55:58;;;;;;;11.57;4.60;;;20.90;99.90;;;;;;6159658;23;20441;-48
2021/07/19 10:58:29;;;;;;;9.63;4.90;;;21.00;99.90;;;;;;6158222;23;20482;-47
2021/07/19 11:00:56;;;;;;;8.70;4.83;;;21.20;99.90;;;;;;6159259;23;20425;-50
2021/07/19 11:03:23;;;;;;;6.90;4.20;;;21.30;99.90;;;;;;6158903;23;20401;-48
2021/07/19 11:06:00;;;;;;;10.10;4.70;;;21.40;99.90;;;;;;6159302;23;20425;-46
2021/07/19 11:08:28;;;;;;;9.00;4.30;;;21.20;99.90;;;;;;6159214;23;20402;-47
2021/07/19 11:10:56;;;;;;;6.50;4.10;;;21.20;99.90;;;;;;6159277;23;20975;-46
2021/07/19 11:13:32;;;;;;;8.20;4.37;;;21.30;99.90;;;;;;6159705;23;20449;-48
2021/07/19 11:15:59;;;;;;;6.90;3.87;;;21.30;99.90;;;;;;6159724;23;20390;-45
2021/07/19 11:18:29;;;;;;;5.70;4.00;;;21.30;99.90;;;;;;6159737;23;20410;-47
2021/07/19 11:21:00;;;;;;;6.93;4.27;;;21.40;99.90;;;;;;6159724;23;20409;-48
2021/07/19 11:23:29;;;;;;;8.30;4.27;;;21.50;99.90;;;;;;6159817;23;20789;-52
2021/07/19 11:25:57;;;;;;;5.30;4.17;;;21.60;99.90;;;;;;6159452;23;20398;-46
2021/07/19 11:28:26;;;;;;;5.30;4.00;;;21.60;99.90;;;;;;6158785;23;20419;-44
2021/07/19 11:31:07;;;;;;;4.47;3.17;;;21.70;99.90;;;;;;6161934;23;20497;-43
2021/07/19 11:33:36;;;;;;;7.43;3.63;;;21.80;99.90;;;;;;6159065;23;20916;-43
2021/07/19 11:36:17;;;;;;;3.53;2.80;;;21.90;99.90;;;;;;6159486;23;20406;-45
2021/07/19 11:38:44;;;;;;;6.63;3.50;;;21.80;99.90;;;;;;6161874;23;20397;-44
2021/07/19 11:41:19;;;;;;;3.93;2.80;;;21.80;99.90;;;;;;6158758;23;20417;-46
2021/07/19 11:43:47;;;;;;;5.80;3.30;;;21.70;99.90;;;;;;6159081;23;20386;-43
2021/07/19 11:46:23;;;;;;;6.30;3.43;;;21.80;99.90;;;;;;6159241;23;20735;-45
2021/07/19 11:48:51;;;;;;;3.63;2.90;;;21.80;99.50;;;;;;6159203;23;20868;-48
2021/07/19 11:51:21;;;;;;;9.10;3.40;;;21.80;99.50;;;;;;6159555;23;20488;-45
2021/07/19 11:53:48;;;;;;;3.83;3.13;;;21.90;99.40;;;;;;6159008;23;20464;-48
2021/07/19 11:56:15;;;;;;;5.50;3.03;;;22.10;99.90;;;;;;6159778;23;20414;-50
2021/07/19 11:58:43;;;;;;;4.77;3.30;;;22.30;99.90;;;;;;6158353;23;20918;-46
2021/07/19 12:01:11;;;;;;;4.13;3.10;;;22.50;98.60;;;;;;6158554;23;20429;-45
2021/07/19 12:03:38;;;;;;;5.37;3.17;;;22.60;98.10;;;;;;6158562;23;20401;-49
2021/07/19 12:06:05;;;;;;;5.60;3.10;;;22.70;97.70;;;;;;6158364;23;20417;-50
2021/07/19 12:08:35;;;;;;;5.30;3.60;;;22.80;98.00;;;;;;6158732;23;20416;-46
2021/07/19 12:11:04;;;;;;;6.40;4.30;;;22.90;97.20;;;;;;6158415;23;20401;-44
2021/07/19 12:13:36;;;;;;;4.20;3.80;;;23.00;96.30;;;;;;6157655;23;20437;-50
2021/07/19 12:16:03;;;;;;;5.37;3.67;;;23.30;97.10;;;;;;6158313;23;20421;-48
2021/07/19 12:18:31;;;;;;;7.33;3.47;;;23.60;96.20;;;;;;6160167;23;20410;-48
2021/07/19 12:20:59;;;;;;;11.47;3.83;;;23.90;95.50;;;;;;6160522;23;20460;-44
2021/07/19 12:23:39;;;;;;;6.00;4.40;;;24.00;94.40;;;;;;6159880;23;20518;-47
2021/07/19 12:26:05;;;;;;;5.93;3.80;;;23.80;93.70;;;;;;6159937;23;20389;-45
2021/07/19 12:28:32;;;;;;;5.53;4.13;;;23.50;93.50;;;;;;6161832;23;20473;-49
2021/07/19 12:31:13;;;;;;;5.67;3.90;;;23.40;94.80;;;;;;6159482;23;20406;-46
2021/07/19 12:33:39;;;;;;;6.67;4.00;;;23.30;94.70;;;;;;6159494;23;20449;-42
2021/07/19 12:36:06;;;;;;;6.70;3.40;;;23.10;95.50;;;;;;6159871;23;20776;-47
2021/07/19 12:38:33;;;;;;;7.20;4.10;;;22.80;95.20;;;;;;6160360;23;20414;-44
2021/07/19 12:41:02;;;;;;;9.87;3.93;;;22.60;96.20;;;;;;6160374;23;20433;-45
2021/07/19 12:43:30;;;;;;;5.10;3.70;;;22.40;97.50;;;;;;6160944;23;20397;-46
2021/07/19 12:45:57;;;;;;;4.87;3.60;;;22.50;97.20;;;;;;6160133;23;20412;-42
2021/07/19 12:48:24;;;;;;;8.03;4.70;;;22.40;97.10;;;;;;6160168;23;20409;-47
2021/07/19 12:51:00;;;;;;;6.17;4.23;;;22.40;98.50;;;;;;6159669;23;20405;-45